UK Forecasts

Forecast for Latton

Choose location
last update: 19/09/2021 @ 01:18
Data from MET Norway
All times are GMT




Today: - Sunday 19th September

Time Cloud Temp °C Precip in Wind Speed mph Pressure mb
03:00 13.3 < 0.01 Light breeze from WSW 3.4 1012.5
04:00 13.5 < 0.01 Light breeze from W 4.7 1012.7
05:00 13.9 0.01 Light breeze from WNW 5.8 1013.0
06:00 13.7 Light breeze from WNW 4.3 1013.2
07:00 14.0 Light breeze from WNW 5.8 1013.9
08:00 14.6 Light breeze from WNW 5.8 1014.2
09:00 15.3 Light breeze from W 5.6 1014.6
10:00 16.3 Light breeze from W 5.6 1014.9
11:00 17.7 Light breeze from W 6.5 1014.8
12:00 19.1 < 0.01 Gentle breeze from WNW 7.6 1014.7
13:00 18.7 < 0.01 Gentle breeze from W 9.6 1014.6
14:00 17.9 0.01 Gentle breeze from W 9.2 1014.9
15:00 17.0 0.01 Gentle breeze from WNW 8.9 1015.1
16:00 16.6 Light breeze from WNW 7.2 1015.2
17:00 16.7 Light breeze from WNW 7.2 1015.5
18:00 16.2 Gentle breeze from WNW 8.3 1016.1
19:00 15.4 Gentle breeze from NW 10.3 1016.9
20:00 14.7 Gentle breeze from NW 10.3 1017.9
21:00 13.8 Gentle breeze from NW 9.6 1018.5
22:00 12.7 Gentle breeze from NW 8.9 1018.8
23:00 11.9 Gentle breeze from NW 8.3 1019.5

Next 9 Days


Monday 20th September
Timespan Cloud Max/Min °C Precip in Wind Speed mph Pressure mb
00:00 - 06:00 10.6 / 9.6 Gentle breeze from NW 8.1 1019.7
06:00 - 12:00 18.3 / 10.8 Gentle breeze from NNW 8.7 1021.7
12:00 - 18:00 19.3 / 14.4 Gentle breeze from NNW 8.9 1023.4
18:00 - 00:00 13.3 / 11.4 Light breeze from N 5.4 1024.7
Tuesday 21st September
Timespan Cloud Max/Min °C Precip in Wind Speed mph Pressure mb
00:00 - 06:00 10.8 / 10.0 Light breeze from N 5.6 1028.2
06:00 - 12:00 18.2 / 11.1 Light breeze from NNW 3.6 1029.2
12:00 - 18:00 19.4 / 15.8 Light air from WSW 1.8 1029.6
18:00 - 00:00 16.8 / 12.1 Light breeze from WSW 4.9 1027.5
Wednesday 22nd September
Timespan Cloud Max/Min °C Precip in Wind Speed mph Pressure mb
00:00 - 06:00 12.9 / 12.0 Light breeze from SW 5.8 1026.9
06:00 - 12:00 17.3 / 12.7 0.01 Light breeze from SW 7.4 1024.3
12:00 - 18:00 18.1 / 15.7 Moderate breeze from WSW 13.2 1022.0
18:00 - 00:00 15.5 / 14.5 Moderate breeze from WSW 13.2 1017.2
Thursday 23rd September
Timespan Cloud Max/Min °C Precip in Wind Speed mph Pressure mb
00:00 - 06:00 15.7 / 13.0 < 0.01 Moderate breeze from SW 16.6 1011.5
06:00 - 12:00 15.1 / 13.1 < 0.01 Moderate breeze from W 17.2 1007.8
12:00 - 18:00 15.2 / 12.0 Fresh breeze from WNW 21.5 1008.3
18:00 - 00:00 11.9 / 9.1 Moderate breeze from WNW 17.2 1010.5
Friday 24th September
Timespan Cloud Max/Min °C Precip in Wind Speed mph Pressure mb
00:00 - 06:00 9.1 / 6.9 Moderate breeze from WNW 12.8 1014.2
06:00 - 12:00 13.7 / 6.9 Light breeze from WSW 6.9 1016.1
12:00 - 18:00 15.3 / 13.0 Moderate breeze from W 12.5 1015.9
18:00 - 00:00 14.3 / 12.9 < 0.01 Gentle breeze from SSW 10.5 1012.8
Saturday 25th September
Timespan Cloud Max/Min °C Precip in Wind Speed mph Pressure mb
00:00 - 06:00 13.8 / 12.9 Gentle breeze from WSW 10.3 1012.3
06:00 - 12:00 17.3 / 13.2 0.01 Gentle breeze from WSW 9.8 1012.3
12:00 - 18:00 19.0 / 16.2 < 0.01 Moderate breeze from SW 12.8 1013.4
18:00 - 00:00 16.1 / 12.9 Gentle breeze from WSW 10.1 1012.7
Sunday 26th September
Timespan Cloud Max/Min °C Precip in Wind Speed mph Pressure mb
00:00 - 06:00 14.6 / 12.8 Gentle breeze from SW 8.7 1013.2
06:00 - 12:00 17.4 / 14.7 < 0.01 Moderate breeze from SSW 12.1 1010.4
12:00 - 18:00 17.8 / 16.0 0.09 Fresh breeze from SSW 17.9 1007.7
18:00 - 00:00 16.0 / 11.9 0.09 Moderate breeze from SSW 17.4 1003.5
Monday 27th September
Timespan Cloud Max/Min °C Precip in Wind Speed mph Pressure mb
00:00 - 06:00 11.8 / 10.2 Gentle breeze from SW 11.6 1007.7
06:00 - 12:00 15.8 / 10.1 0.01 Gentle breeze from SSW 7.8 1009.3
12:00 - 18:00 15.7 / 11.4 0.08 Gentle breeze from SW 9.8 1008.9
18:00 - 00:00 11.2 / 8.8 Light breeze from SW 3.4 1007.7
Tuesday 28th September
Timespan Cloud Max/Min °C Precip in Wind Speed mph Pressure mb
00:00 - 06:00 8.8 / 8.1 0.02 Light breeze from NW 5.6 1008.7